Souderton, PA (18964)

2:31 AM EDT on October 02, 2014 (GMT -0400)
Elroy | Change Station
CLOSE
Current Station
Personal Weather Station
Location: Souderton, PA
Elevation: 358 ft
Nearby Weather Stations

Elev 358 ft 40.28 °N, 75.33 °W | Updated 8 minutes ago

Overcast
Overcast
59.1 °F
Feels Like 59.1 °F
N
0.0
Wind Variable Wind from NE
Gusts 0.0 mph

Today
High -- | Low -- °F
--% Chance of Precip.
Yesterday
High -- | Low -- °F
Precip. -- in
6:58 AM 6:41 PM
First Quarter, 55% visible
Pressure 30.11 in
Visibility 10.0 miles
Clouds Scattered Clouds 2600 ft
Overcast 3100 ft
Dew Point 58 °F
Humidity 95%
Rainfall 0.00 in
Snow Depth Not available.
UV 0 out of 12
Pollen 2.00 out of 12
Air Quality Not available.
Flu Activity Not available.
METAR KUKT 020615Z AUTO 00000KT 10SM SCT026 OVC031 14/13 A3011 RMK AO1

More Conditions Fewer Conditions

Pressure 30.11 in
Visibility 10.0 miles
Clouds Scattered Clouds 2600 ft
Overcast 3100 ft
Dew Point 58 °F
Humidity 95%
Rainfall 0.00 in
Snow Depth Not available.
UV 0 out of 12
Pollen 2.00 out of 12
Air Quality Not available.
Flu Activity Not available.
METAR KUKT 020615Z AUTO 00000KT 10SM SCT026 OVC031 14/13 A3011 RMK AO1

More Conditions Fewer Conditions

10-Day Weather Forecast

Almanac

Astronomy

Oct. 02, 2014 Rise Set
Actual Time 6:58 AM EDT 6:41 PM EDT
Civil Twilight 6:31 AM EDT 7:09 PM EDT
Nautical Twilight 5:59 AM EDT 7:40 PM EDT
Astronomical Twilight 5:28 AM EDT 8:12 PM EDT
Moon 2:46 PM EDT 12:12 AM EDT
Length of Visible Light 12h 37m
Length of Day
11h 43m
Tomorrow will be 2m 37s shorter.
First Quarter, 55% of the Moon is Illuminated
Today
First Quarter
Oct 8
Full
Oct 15
Last Quarter
Oct 23
New
Oct 30
First Quarter

Today's Extremes

State Highs State Lows

Community

WunderPhotos

Upload Photos

1,758,198 photos uploaded!

WunderBlogs® & News

Nearby

Snow Depth

Station Depth Elevation
No new snow has been reported.

Earthquake Activity

City Distance Mag. Time & Date
No recent earthquake activity has been reported nearby.
Minimum magnitude displayed is 2.5.

Coastal Water Temperatures

Place Temperature
No Stations Reporting

Nearby Weather Stations